aviador You're here:

KAZO Decoded Metar

KALAMAZOO in MI, USA
Report Time2017-09-25 19:53:00
UTC Time2017-09-25 20:32:56
Flight Rules vfr VFR
Wind190° at 05 kt
W.Decomp.*RWY 17: 4.6 kt HW 2.0 kt RCW
RWY 23: 4.0 kt HW 3 kt LCW
RWY 27: 1.1 kt HW 4.9 kt LCW
W.Rank190° ranks 3
Current wind is below 190° avg. (8.8)
Visibility9999 m
Phenomena:N/A
Clouds:N/A
Expected CloudBase > 9,600 ft AGL from Temp-Dew spread
CeilingNone
Temp32°C (ISA +19)
Dew Point08°C (22% RH)
Heat Index30.1°C
AAT29.6°C
QNH1016 hPa
Density Alt3,081 ft
Elevation892 ft
Report Wrong Elevation
Raw Report
KAZO 251953Z 19005KT 10SM CLR 32/08 A3000 RMK AO2 SLP153
T03170083=

Extra information for KAZO:More info

Metar Taf Metar & Taf Last 4 Metars F.Rules Stats Wind Profile Meteogram Temp Stats Airport Information Weather charts Add Link Nearby VenuesMetar ALERT Operation Metar Decoded Social comments

AIRNAV info for KAZO